Terminal Aerodrome Forecast
Issued by NWS

Home | Current Version | Previous Version | Text Only | Print | Product List | Glossary On
Versions: 1 2 3 4 5 6 7 8 9 10 11 12 13 14 15 16
000
FTUS43 KEAX 241100
TAFMKC
TAF
KMKC 241122Z 2412/2512 17011KT P6SM -SHRA VCTS OVC040CB
      TEMPO 2412/2416 VRB15G25KT 3SM -TSRA OVC025CB
     FM241700 28012KT P6SM VCSH SCT025 OVC040
     FM242100 32011KT P6SM BKN040
     FM250100 26005KT P6SM SKC=

USA.gov is the U.S. government's official web portal to all federal, state and local government web resources and services.